sensor_id;sensor_type;location;lat;lon;timestamp;P1;durP1;ratioP1;P2;durP2;ratioP2
55037;SDS011;40937;53.594;10.034;2023-05-16T00:02:12;5.35;;;5.00;;
55037;SDS011;40937;53.594;10.034;2023-05-16T00:04:41;7.00;;;5.47;;
55037;SDS011;40937;53.594;10.034;2023-05-16T00:07:08;5.60;;;5.13;;
55037;SDS011;40937;53.594;10.034;2023-05-16T00:09:36;5.78;;;5.00;;
55037;SDS011;40937;53.594;10.034;2023-05-16T00:12:03;4.97;;;4.65;;
55037;SDS011;40937;53.594;10.034;2023-05-16T00:14:30;6.00;;;5.32;;
55037;SDS011;40937;53.594;10.034;2023-05-16T00:16:59;6.85;;;5.35;;
55037;SDS011;40937;53.594;10.034;2023-05-16T00:19:29;6.40;;;5.82;;
55037;SDS011;40937;53.594;10.034;2023-05-16T00:21:57;6.05;;;5.45;;
55037;SDS011;40937;53.594;10.034;2023-05-16T00:24:24;6.78;;;6.18;;
55037;SDS011;40937;53.594;10.034;2023-05-16T00:26:53;5.57;;;5.10;;
55037;SDS011;40937;53.594;10.034;2023-05-16T00:29:23;5.40;;;4.85;;
55037;SDS011;40937;53.594;10.034;2023-05-16T00:31:51;4.90;;;4.50;;
55037;SDS011;40937;53.594;10.034;2023-05-16T00:34:19;6.63;;;4.22;;
55037;SDS011;40937;53.594;10.034;2023-05-16T00:36:48;4.40;;;3.88;;
55037;SDS011;40937;53.594;10.034;2023-05-16T00:39:15;3.58;;;3.38;;
55037;SDS011;40937;53.594;10.034;2023-05-16T00:41:43;4.88;;;3.42;;
55037;SDS011;40937;53.594;10.034;2023-05-16T00:44:10;6.10;;;3.42;;
55037;SDS011;40937;53.594;10.034;2023-05-16T00:46:37;5.47;;;3.22;;
55037;SDS011;40937;53.594;10.034;2023-05-16T00:49:05;4.55;;;2.88;;
55037;SDS011;40937;53.594;10.034;2023-05-16T00:51:34;6.53;;;2.85;;
55037;SDS011;40937;53.594;10.034;2023-05-16T00:54:03;2.83;;;2.60;;
55037;SDS011;40937;53.594;10.034;2023-05-16T00:56:31;5.50;;;2.72;;
55037;SDS011;40937;53.594;10.034;2023-05-16T00:59:00;3.50;;;2.72;;
55037;SDS011;40937;53.594;10.034;2023-05-16T01:01:28;4.47;;;2.65;;
55037;SDS011;40937;53.594;10.034;2023-05-16T01:03:59;2.63;;;2.40;;
55037;SDS011;40937;53.594;10.034;2023-05-16T01:06:26;4.50;;;2.85;;
55037;SDS011;40937;53.594;10.034;2023-05-16T01:08:55;4.97;;;2.13;;
55037;SDS011;40937;53.594;10.034;2023-05-16T01:11:24;2.38;;;2.20;;
55037;SDS011;40937;53.594;10.034;2023-05-16T01:13:58;5.25;;;2.92;;
55037;SDS011;40937;53.594;10.034;2023-05-16T01:16:35;4.22;;;2.35;;
55037;SDS011;40937;53.594;10.034;2023-05-16T01:19:07;5.00;;;3.17;;
55037;SDS011;40937;53.594;10.034;2023-05-16T01:21:47;5.10;;;2.20;;
55037;SDS011;40937;53.594;10.034;2023-05-16T01:24:21;4.47;;;2.58;;
55037;SDS011;40937;53.594;10.034;2023-05-16T01:26:54;5.70;;;2.55;;
55037;SDS011;40937;53.594;10.034;2023-05-16T01:29:22;5.35;;;2.50;;
55037;SDS011;40937;53.594;10.034;2023-05-16T01:31:49;5.82;;;2.60;;
55037;SDS011;40937;53.594;10.034;2023-05-16T01:34:17;4.07;;;2.75;;
55037;SDS011;40937;53.594;10.034;2023-05-16T01:36:47;6.20;;;3.58;;
55037;SDS011;40937;53.594;10.034;2023-05-16T01:39:19;4.38;;;3.10;;
55037;SDS011;40937;53.594;10.034;2023-05-16T01:41:58;9.07;;;2.97;;
55037;SDS011;40937;53.594;10.034;2023-05-16T01:44:30;5.80;;;3.05;;
55037;SDS011;40937;53.594;10.034;2023-05-16T01:47:01;8.40;;;3.65;;
55037;SDS011;40937;53.594;10.034;2023-05-16T01:49:38;3.58;;;2.90;;
55037;SDS011;40937;53.594;10.034;2023-05-16T01:52:10;5.47;;;2.90;;
55037;SDS011;40937;53.594;10.034;2023-05-16T01:54:42;7.00;;;3.35;;
55037;SDS011;40937;53.594;10.034;2023-05-16T01:57:13;11.23;;;4.75;;
55037;SDS011;40937;53.594;10.034;2023-05-16T01:59:42;7.63;;;3.05;;
55037;SDS011;40937;53.594;10.034;2023-05-16T02:02:10;8.60;;;3.10;;
55037;SDS011;40937;53.594;10.034;2023-05-16T02:04:39;10.20;;;3.13;;
55037;SDS011;40937;53.594;10.034;2023-05-16T02:07:07;12.05;;;2.70;;
55037;SDS011;40937;53.594;10.034;2023-05-16T02:09:37;9.18;;;2.90;;
55037;SDS011;40937;53.594;10.034;2023-05-16T02:12:06;11.70;;;2.88;;
55037;SDS011;40937;53.594;10.034;2023-05-16T02:14:35;12.02;;;3.47;;
55037;SDS011;40937;53.594;10.034;2023-05-16T02:17:05;8.55;;;2.40;;
55037;SDS011;40937;53.594;10.034;2023-05-16T02:19:33;11.35;;;2.78;;
55037;SDS011;40937;53.594;10.034;2023-05-16T02:22:00;12.85;;;3.35;;
55037;SDS011;40937;53.594;10.034;2023-05-16T02:24:30;11.27;;;2.83;;
55037;SDS011;40937;53.594;10.034;2023-05-16T02:26:57;10.32;;;3.42;;
55037;SDS011;40937;53.594;10.034;2023-05-16T02:29:24;11.70;;;3.20;;
55037;SDS011;40937;53.594;10.034;2023-05-16T02:31:53;9.38;;;2.88;;
55037;SDS011;40937;53.594;10.034;2023-05-16T02:34:22;14.95;;;2.60;;
55037;SDS011;40937;53.594;10.034;2023-05-16T02:36:50;12.70;;;3.20;;
55037;SDS011;40937;53.594;10.034;2023-05-16T02:39:17;8.57;;;2.70;;
55037;SDS011;40937;53.594;10.034;2023-05-16T02:41:44;8.18;;;2.50;;
55037;SDS011;40937;53.594;10.034;2023-05-16T02:44:14;12.10;;;2.83;;
55037;SDS011;40937;53.594;10.034;2023-05-16T02:46:44;6.43;;;2.65;;
55037;SDS011;40937;53.594;10.034;2023-05-16T02:49:13;11.65;;;3.00;;
55037;SDS011;40937;53.594;10.034;2023-05-16T02:51:40;11.18;;;2.60;;
55037;SDS011;40937;53.594;10.034;2023-05-16T02:54:07;9.35;;;3.08;;
55037;SDS011;40937;53.594;10.034;2023-05-16T02:56:35;9.73;;;3.33;;
55037;SDS011;40937;53.594;10.034;2023-05-16T02:59:02;9.18;;;3.00;;
55037;SDS011;40937;53.594;10.034;2023-05-16T03:01:29;10.52;;;3.47;;
55037;SDS011;40937;53.594;10.034;2023-05-16T03:03:57;14.45;;;3.05;;
55037;SDS011;40937;53.594;10.034;2023-05-16T03:06:25;14.88;;;3.53;;
55037;SDS011;40937;53.594;10.034;2023-05-16T03:08:53;13.10;;;3.47;;
55037;SDS011;40937;53.594;10.034;2023-05-16T03:11:20;10.20;;;3.05;;
55037;SDS011;40937;53.594;10.034;2023-05-16T03:13:48;14.85;;;3.38;;
55037;SDS011;40937;53.594;10.034;2023-05-16T03:16:15;15.35;;;4.03;;
55037;SDS011;40937;53.594;10.034;2023-05-16T03:18:43;10.30;;;3.40;;
55037;SDS011;40937;53.594;10.034;2023-05-16T03:21:10;9.95;;;2.50;;
55037;SDS011;40937;53.594;10.034;2023-05-16T03:23:38;10.73;;;4.10;;
55037;SDS011;40937;53.594;10.034;2023-05-16T03:26:08;18.30;;;4.07;;
55037;SDS011;40937;53.594;10.034;2023-05-16T03:28:36;14.70;;;3.65;;
55037;SDS011;40937;53.594;10.034;2023-05-16T03:31:03;16.00;;;3.65;;
55037;SDS011;40937;53.594;10.034;2023-05-16T03:33:30;13.65;;;3.88;;
55037;SDS011;40937;53.594;10.034;2023-05-16T03:36:01;15.25;;;3.75;;
55037;SDS011;40937;53.594;10.034;2023-05-16T03:38:28;15.90;;;3.40;;
55037;SDS011;40937;53.594;10.034;2023-05-16T03:40:57;16.05;;;3.45;;
55037;SDS011;40937;53.594;10.034;2023-05-16T03:43:24;13.70;;;3.45;;
55037;SDS011;40937;53.594;10.034;2023-05-16T03:45:51;13.43;;;3.33;;
55037;SDS011;40937;53.594;10.034;2023-05-16T03:48:18;9.52;;;3.08;;
55037;SDS011;40937;53.594;10.034;2023-05-16T03:50:46;16.50;;;4.68;;
55037;SDS011;40937;53.594;10.034;2023-05-16T03:53:16;11.45;;;3.05;;
55037;SDS011;40937;53.594;10.034;2023-05-16T03:55:43;17.10;;;2.95;;
55037;SDS011;40937;53.594;10.034;2023-05-16T03:58:11;13.13;;;3.47;;
55037;SDS011;40937;53.594;10.034;2023-05-16T04:00:38;14.00;;;4.07;;
55037;SDS011;40937;53.594;10.034;2023-05-16T04:03:06;17.30;;;3.53;;
55037;SDS011;40937;53.594;10.034;2023-05-16T04:05:33;19.33;;;4.63;;
55037;SDS011;40937;53.594;10.034;2023-05-16T04:08:01;15.70;;;3.83;;
55037;SDS011;40937;53.594;10.034;2023-05-16T04:10:28;19.35;;;5.00;;
55037;SDS011;40937;53.594;10.034;2023-05-16T04:12:55;17.02;;;4.20;;
55037;SDS011;40937;53.594;10.034;2023-05-16T04:15:25;14.90;;;3.58;;
55037;SDS011;40937;53.594;10.034;2023-05-16T04:17:53;23.80;;;4.10;;
55037;SDS011;40937;53.594;10.034;2023-05-16T04:20:21;20.20;;;3.92;;
55037;SDS011;40937;53.594;10.034;2023-05-16T04:22:48;14.75;;;3.88;;
55037;SDS011;40937;53.594;10.034;2023-05-16T04:25:16;14.38;;;3.50;;
55037;SDS011;40937;53.594;10.034;2023-05-16T04:27:43;15.07;;;4.28;;
55037;SDS011;40937;53.594;10.034;2023-05-16T04:30:11;16.25;;;3.97;;
55037;SDS011;40937;53.594;10.034;2023-05-16T04:32:40;24.95;;;4.00;;
55037;SDS011;40937;53.594;10.034;2023-05-16T04:35:08;17.27;;;3.83;;
55037;SDS011;40937;53.594;10.034;2023-05-16T04:37:38;14.93;;;3.50;;
55037;SDS011;40937;53.594;10.034;2023-05-16T04:40:05;14.05;;;3.67;;
55037;SDS011;40937;53.594;10.034;2023-05-16T04:42:39;13.63;;;3.60;;
55037;SDS011;40937;53.594;10.034;2023-05-16T04:45:08;21.92;;;4.32;;
55037;SDS011;40937;53.594;10.034;2023-05-16T04:47:36;18.17;;;3.58;;
55037;SDS011;40937;53.594;10.034;2023-05-16T04:50:06;18.75;;;3.47;;
55037;SDS011;40937;53.594;10.034;2023-05-16T04:52:34;20.27;;;3.72;;
55037;SDS011;40937;53.594;10.034;2023-05-16T04:55:03;14.32;;;3.78;;
55037;SDS011;40937;53.594;10.034;2023-05-16T04:57:31;16.55;;;3.50;;
55037;SDS011;40937;53.594;10.034;2023-05-16T05:00:00;13.82;;;3.60;;
55037;SDS011;40937;53.594;10.034;2023-05-16T05:02:30;11.63;;;2.55;;
55037;SDS011;40937;53.594;10.034;2023-05-16T05:04:57;14.02;;;4.03;;
55037;SDS011;40937;53.594;10.034;2023-05-16T05:07:27;18.02;;;3.53;;
55037;SDS011;40937;53.594;10.034;2023-05-16T05:09:55;14.73;;;3.42;;
55037;SDS011;40937;53.594;10.034;2023-05-16T05:12:24;15.18;;;3.97;;
55037;SDS011;40937;53.594;10.034;2023-05-16T05:14:56;13.43;;;3.38;;
55037;SDS011;40937;53.594;10.034;2023-05-16T05:17:23;14.70;;;4.75;;
55037;SDS011;40937;53.594;10.034;2023-05-16T05:19:50;13.00;;;3.63;;
55037;SDS011;40937;53.594;10.034;2023-05-16T05:22:17;16.35;;;3.08;;
55037;SDS011;40937;53.594;10.034;2023-05-16T05:24:46;22.33;;;4.35;;
55037;SDS011;40937;53.594;10.034;2023-05-16T05:27:13;13.52;;;3.22;;
55037;SDS011;40937;53.594;10.034;2023-05-16T05:29:46;17.40;;;3.33;;
55037;SDS011;40937;53.594;10.034;2023-05-16T05:32:14;17.58;;;3.90;;
55037;SDS011;40937;53.594;10.034;2023-05-16T05:34:41;10.20;;;3.13;;
55037;SDS011;40937;53.594;10.034;2023-05-16T05:37:08;17.70;;;3.90;;
55037;SDS011;40937;53.594;10.034;2023-05-16T05:39:38;12.70;;;3.22;;
55037;SDS011;40937;53.594;10.034;2023-05-16T05:42:07;16.45;;;3.35;;
55037;SDS011;40937;53.594;10.034;2023-05-16T05:44:34;22.67;;;3.65;;
55037;SDS011;40937;53.594;10.034;2023-05-16T05:47:02;12.02;;;3.70;;
55037;SDS011;40937;53.594;10.034;2023-05-16T05:49:30;12.50;;;3.00;;
55037;SDS011;40937;53.594;10.034;2023-05-16T05:51:57;16.13;;;4.00;;
55037;SDS011;40937;53.594;10.034;2023-05-16T05:54:24;17.63;;;3.53;;
55037;SDS011;40937;53.594;10.034;2023-05-16T05:56:51;21.17;;;3.22;;
55037;SDS011;40937;53.594;10.034;2023-05-16T05:59:23;15.80;;;3.58;;
55037;SDS011;40937;53.594;10.034;2023-05-16T06:01:50;14.80;;;3.88;;
55037;SDS011;40937;53.594;10.034;2023-05-16T06:04:18;11.93;;;3.03;;
55037;SDS011;40937;53.594;10.034;2023-05-16T06:06:45;17.15;;;3.25;;
55037;SDS011;40937;53.594;10.034;2023-05-16T06:09:12;14.75;;;3.70;;
55037;SDS011;40937;53.594;10.034;2023-05-16T06:11:39;15.07;;;3.80;;
55037;SDS011;40937;53.594;10.034;2023-05-16T06:14:07;12.32;;;3.40;;
55037;SDS011;40937;53.594;10.034;2023-05-16T06:16:36;15.90;;;3.33;;
55037;SDS011;40937;53.594;10.034;2023-05-16T06:19:08;17.48;;;3.33;;
55037;SDS011;40937;53.594;10.034;2023-05-16T06:21:37;11.23;;;3.25;;
55037;SDS011;40937;53.594;10.034;2023-05-16T06:24:04;11.80;;;3.22;;
55037;SDS011;40937;53.594;10.034;2023-05-16T06:26:32;12.82;;;3.00;;
55037;SDS011;40937;53.594;10.034;2023-05-16T06:28:59;14.07;;;3.17;;
55037;SDS011;40937;53.594;10.034;2023-05-16T06:31:27;15.00;;;3.00;;
55037;SDS011;40937;53.594;10.034;2023-05-16T06:33:55;22.00;;;3.25;;
55037;SDS011;40937;53.594;10.034;2023-05-16T06:36:22;13.75;;;3.40;;
55037;SDS011;40937;53.594;10.034;2023-05-16T06:38:49;14.75;;;3.20;;
55037;SDS011;40937;53.594;10.034;2023-05-16T06:41:17;17.55;;;3.17;;
55037;SDS011;40937;53.594;10.034;2023-05-16T06:43:44;15.80;;;3.22;;
55037;SDS011;40937;53.594;10.034;2023-05-16T06:46:11;16.38;;;2.72;;
55037;SDS011;40937;53.594;10.034;2023-05-16T06:48:38;15.55;;;3.45;;
55037;SDS011;40937;53.594;10.034;2023-05-16T06:51:07;13.18;;;2.92;;
55037;SDS011;40937;53.594;10.034;2023-05-16T06:53:34;17.52;;;3.38;;
55037;SDS011;40937;53.594;10.034;2023-05-16T06:56:02;17.05;;;3.03;;
55037;SDS011;40937;53.594;10.034;2023-05-16T06:58:32;16.05;;;3.55;;
55037;SDS011;40937;53.594;10.034;2023-05-16T07:00:59;8.95;;;2.63;;
55037;SDS011;40937;53.594;10.034;2023-05-16T07:03:27;17.00;;;3.17;;
55037;SDS011;40937;53.594;10.034;2023-05-16T07:05:54;12.00;;;3.53;;
55037;SDS011;40937;53.594;10.034;2023-05-16T07:08:25;8.43;;;2.67;;
55037;SDS011;40937;53.594;10.034;2023-05-16T07:10:52;8.15;;;2.42;;
55037;SDS011;40937;53.594;10.034;2023-05-16T07:13:20;11.93;;;2.85;;
55037;SDS011;40937;53.594;10.034;2023-05-16T07:15:47;9.98;;;2.55;;
55037;SDS011;40937;53.594;10.034;2023-05-16T07:18:14;15.35;;;2.90;;
55037;SDS011;40937;53.594;10.034;2023-05-16T07:20:41;10.02;;;3.10;;
55037;SDS011;40937;53.594;10.034;2023-05-16T07:23:09;10.35;;;2.78;;
55037;SDS011;40937;53.594;10.034;2023-05-16T07:25:37;11.15;;;3.38;;
55037;SDS011;40937;53.594;10.034;2023-05-16T07:28:05;14.23;;;2.75;;
55037;SDS011;40937;53.594;10.034;2023-05-16T07:30:32;8.82;;;2.97;;
55037;SDS011;40937;53.594;10.034;2023-05-16T07:32:59;12.43;;;3.85;;
55037;SDS011;40937;53.594;10.034;2023-05-16T07:35:26;15.13;;;3.10;;
55037;SDS011;40937;53.594;10.034;2023-05-16T07:37:55;11.27;;;2.55;;
55037;SDS011;40937;53.594;10.034;2023-05-16T07:40:22;9.50;;;2.80;;
55037;SDS011;40937;53.594;10.034;2023-05-16T07:42:54;10.52;;;3.20;;
55037;SDS011;40937;53.594;10.034;2023-05-16T07:45:21;10.60;;;2.35;;
55037;SDS011;40937;53.594;10.034;2023-05-16T07:47:48;10.32;;;2.25;;
55037;SDS011;40937;53.594;10.034;2023-05-16T07:50:16;13.95;;;2.45;;
55037;SDS011;40937;53.594;10.034;2023-05-16T07:52:43;5.47;;;2.13;;
55037;SDS011;40937;53.594;10.034;2023-05-16T07:55:11;11.93;;;2.33;;
55037;SDS011;40937;53.594;10.034;2023-05-16T07:57:38;10.52;;;2.88;;
55037;SDS011;40937;53.594;10.034;2023-05-16T08:00:07;6.72;;;1.80;;
55037;SDS011;40937;53.594;10.034;2023-05-16T08:02:38;7.55;;;2.30;;
55037;SDS011;40937;53.594;10.034;2023-05-16T08:05:06;8.18;;;2.05;;
55037;SDS011;40937;53.594;10.034;2023-05-16T08:07:34;11.10;;;3.10;;
55037;SDS011;40937;53.594;10.034;2023-05-16T08:10:01;9.02;;;2.22;;
55037;SDS011;40937;53.594;10.034;2023-05-16T08:12:29;11.55;;;2.25;;
55037;SDS011;40937;53.594;10.034;2023-05-16T08:14:58;14.25;;;2.10;;
55037;SDS011;40937;53.594;10.034;2023-05-16T08:17:27;10.55;;;2.33;;
55037;SDS011;40937;53.594;10.034;2023-05-16T08:19:54;7.53;;;1.88;;
55037;SDS011;40937;53.594;10.034;2023-05-16T08:22:23;5.38;;;2.25;;
55037;SDS011;40937;53.594;10.034;2023-05-16T08:24:52;10.07;;;2.35;;
55037;SDS011;40937;53.594;10.034;2023-05-16T08:27:22;10.15;;;2.38;;
55037;SDS011;40937;53.594;10.034;2023-05-16T08:29:50;7.28;;;2.63;;
55037;SDS011;40937;53.594;10.034;2023-05-16T08:32:17;16.65;;;3.13;;
55037;SDS011;40937;53.594;10.034;2023-05-16T08:34:45;12.45;;;2.97;;
55037;SDS011;40937;53.594;10.034;2023-05-16T08:37:13;5.35;;;2.05;;
55037;SDS011;40937;53.594;10.034;2023-05-16T08:39:41;7.68;;;2.00;;
55037;SDS011;40937;53.594;10.034;2023-05-16T08:42:08;7.13;;;2.33;;
55037;SDS011;40937;53.594;10.034;2023-05-16T08:44:35;7.43;;;2.95;;
55037;SDS011;40937;53.594;10.034;2023-05-16T08:47:04;8.38;;;2.35;;
55037;SDS011;40937;53.594;10.034;2023-05-16T08:49:38;7.95;;;2.30;;
55037;SDS011;40937;53.594;10.034;2023-05-16T08:52:08;10.35;;;1.98;;
55037;SDS011;40937;53.594;10.034;2023-05-16T08:54:36;7.90;;;2.13;;
55037;SDS011;40937;53.594;10.034;2023-05-16T08:57:03;5.53;;;1.88;;
55037;SDS011;40937;53.594;10.034;2023-05-16T08:59:31;7.25;;;1.77;;
55037;SDS011;40937;53.594;10.034;2023-05-16T09:01:59;6.93;;;1.95;;
55037;SDS011;40937;53.594;10.034;2023-05-16T09:04:26;6.78;;;1.45;;
55037;SDS011;40937;53.594;10.034;2023-05-16T09:06:54;5.88;;;1.75;;
55037;SDS011;40937;53.594;10.034;2023-05-16T09:09:23;9.65;;;2.45;;
55037;SDS011;40937;53.594;10.034;2023-05-16T09:11:51;13.30;;;2.17;;
55037;SDS011;40937;53.594;10.034;2023-05-16T09:14:18;16.48;;;2.00;;
55037;SDS011;40937;53.594;10.034;2023-05-16T09:16:48;9.05;;;2.38;;
55037;SDS011;40937;53.594;10.034;2023-05-16T09:19:36;10.95;;;2.72;;
55037;SDS011;40937;53.594;10.034;2023-05-16T09:22:05;15.18;;;2.75;;
55037;SDS011;40937;53.594;10.034;2023-05-16T09:24:36;12.07;;;2.22;;
55037;SDS011;40937;53.594;10.034;2023-05-16T09:27:07;9.35;;;2.47;;
55037;SDS011;40937;53.594;10.034;2023-05-16T09:29:35;9.70;;;2.08;;
55037;SDS011;40937;53.594;10.034;2023-05-16T09:32:09;9.60;;;2.13;;
55037;SDS011;40937;53.594;10.034;2023-05-16T09:34:40;10.27;;;2.38;;
55037;SDS011;40937;53.594;10.034;2023-05-16T09:37:09;10.90;;;2.15;;
55037;SDS011;40937;53.594;10.034;2023-05-16T09:39:40;8.77;;;2.67;;
55037;SDS011;40937;53.594;10.034;2023-05-16T09:42:12;13.10;;;2.83;;
55037;SDS011;40937;53.594;10.034;2023-05-16T09:44:40;10.75;;;2.58;;
55037;SDS011;40937;53.594;10.034;2023-05-16T09:47:12;11.43;;;2.22;;
55037;SDS011;40937;53.594;10.034;2023-05-16T09:49:40;10.48;;;2.50;;
55037;SDS011;40937;53.594;10.034;2023-05-16T09:52:08;9.25;;;2.10;;
55037;SDS011;40937;53.594;10.034;2023-05-16T09:54:35;6.25;;;2.55;;
55037;SDS011;40937;53.594;10.034;2023-05-16T09:57:04;12.63;;;2.28;;
55037;SDS011;40937;53.594;10.034;2023-05-16T09:59:34;13.27;;;2.63;;
55037;SDS011;40937;53.594;10.034;2023-05-16T10:02:02;10.45;;;2.38;;
55037;SDS011;40937;53.594;10.034;2023-05-16T10:04:32;9.82;;;2.60;;
55037;SDS011;40937;53.594;10.034;2023-05-16T10:07:00;9.60;;;2.58;;
55037;SDS011;40937;53.594;10.034;2023-05-16T10:09:30;10.35;;;3.47;;
55037;SDS011;40937;53.594;10.034;2023-05-16T10:11:59;15.82;;;3.20;;
55037;SDS011;40937;53.594;10.034;2023-05-16T10:54:38;10.43;;;2.40;;
55037;SDS011;40937;53.594;10.034;2023-05-16T10:57:08;10.25;;;2.35;;
55037;SDS011;40937;53.594;10.034;2023-05-16T10:59:47;8.88;;;1.92;;
55037;SDS011;40937;53.594;10.034;2023-05-16T11:02:22;9.80;;;2.53;;
55037;SDS011;40937;53.594;10.034;2023-05-16T11:04:52;9.68;;;2.20;;
55037;SDS011;40937;53.594;10.034;2023-05-16T11:07:21;15.80;;;3.15;;
55037;SDS011;40937;53.594;10.034;2023-05-16T11:10:02;12.82;;;3.05;;
55037;SDS011;40937;53.594;10.034;2023-05-16T11:12:37;10.70;;;2.25;;
55037;SDS011;40937;53.594;10.034;2023-05-16T11:15:17;15.73;;;2.58;;
55037;SDS011;40937;53.594;10.034;2023-05-16T11:17:49;6.25;;;2.13;;
55037;SDS011;40937;53.594;10.034;2023-05-16T11:20:28;7.25;;;1.58;;
55037;SDS011;40937;53.594;10.034;2023-05-16T11:23:19;5.13;;;1.75;;
55037;SDS011;40937;53.594;10.034;2023-05-16T11:25:53;4.13;;;1.75;;
55037;SDS011;40937;53.594;10.034;2023-05-16T11:28:22;5.93;;;1.92;;
55037;SDS011;40937;53.594;10.034;2023-05-16T11:30:52;6.25;;;2.25;;
55037;SDS011;40937;53.594;10.034;2023-05-16T11:33:26;3.90;;;1.90;;
55037;SDS011;40937;53.594;10.034;2023-05-16T11:35:59;3.58;;;1.60;;
55037;SDS011;40937;53.594;10.034;2023-05-16T11:38:31;9.30;;;2.28;;
55037;SDS011;40937;53.594;10.034;2023-05-16T11:41:02;12.88;;;2.28;;
55037;SDS011;40937;53.594;10.034;2023-05-16T11:43:41;8.55;;;2.00;;
55037;SDS011;40937;53.594;10.034;2023-05-16T11:46:11;6.97;;;1.58;;
55037;SDS011;40937;53.594;10.034;2023-05-16T11:48:40;6.05;;;1.85;;
55037;SDS011;40937;53.594;10.034;2023-05-16T11:51:11;5.03;;;1.63;;
55037;SDS011;40937;53.594;10.034;2023-05-16T11:53:39;8.00;;;1.85;;
55037;SDS011;40937;53.594;10.034;2023-05-16T11:56:09;7.40;;;1.77;;
55037;SDS011;40937;53.594;10.034;2023-05-16T11:58:37;3.53;;;1.63;;
55037;SDS011;40937;53.594;10.034;2023-05-16T12:01:07;5.28;;;1.95;;
55037;SDS011;40937;53.594;10.034;2023-05-16T12:03:35;8.68;;;1.67;;
55037;SDS011;40937;53.594;10.034;2023-05-16T12:06:04;8.38;;;2.17;;
55037;SDS011;40937;53.594;10.034;2023-05-16T12:08:32;12.05;;;1.88;;
55037;SDS011;40937;53.594;10.034;2023-05-16T12:11:01;10.38;;;1.83;;
55037;SDS011;40937;53.594;10.034;2023-05-16T12:13:35;6.53;;;2.20;;
55037;SDS011;40937;53.594;10.034;2023-05-16T12:16:05;10.73;;;2.10;;
55037;SDS011;40937;53.594;10.034;2023-05-16T12:18:33;6.97;;;2.10;;
55037;SDS011;40937;53.594;10.034;2023-05-16T12:21:04;5.45;;;1.83;;
55037;SDS011;40937;53.594;10.034;2023-05-16T12:23:33;7.80;;;1.65;;
55037;SDS011;40937;53.594;10.034;2023-05-16T12:26:08;9.10;;;1.52;;
55037;SDS011;40937;53.594;10.034;2023-05-16T12:28:39;4.18;;;1.63;;
55037;SDS011;40937;53.594;10.034;2023-05-16T12:31:10;8.38;;;2.05;;
55037;SDS011;40937;53.594;10.034;2023-05-16T12:33:46;13.68;;;2.20;;
55037;SDS011;40937;53.594;10.034;2023-05-16T12:36:14;15.77;;;1.42;;
55037;SDS011;40937;53.594;10.034;2023-05-16T12:38:44;15.45;;;1.73;;
55037;SDS011;40937;53.594;10.034;2023-05-16T12:41:16;9.52;;;1.83;;
55037;SDS011;40937;53.594;10.034;2023-05-16T13:10:47;12.57;;;4.80;;
55037;SDS011;40937;53.594;10.034;2023-05-16T13:52:36;4.18;;;2.20;;
55037;SDS011;40937;53.594;10.034;2023-05-16T15:37:28;9.82;;;2.70;;
55037;SDS011;40937;53.594;10.034;2023-05-16T16:56:27;8.00;;;2.20;;
55037;SDS011;40937;53.594;10.034;2023-05-16T17:49:52;10.77;;;4.45;;
55037;SDS011;40937;53.594;10.034;2023-05-16T17:52:19;10.48;;;4.50;;
55037;SDS011;40937;53.594;10.034;2023-05-16T17:54:47;13.18;;;4.03;;
55037;SDS011;40937;53.594;10.034;2023-05-16T17:57:14;12.10;;;4.65;;
55037;SDS011;40937;53.594;10.034;2023-05-16T17:59:42;14.27;;;4.68;;
55037;SDS011;40937;53.594;10.034;2023-05-16T18:02:09;14.45;;;4.55;;
55037;SDS011;40937;53.594;10.034;2023-05-16T18:04:39;10.43;;;4.90;;
55037;SDS011;40937;53.594;10.034;2023-05-16T18:07:08;11.73;;;5.22;;
55037;SDS011;40937;53.594;10.034;2023-05-16T18:09:35;14.80;;;5.63;;
55037;SDS011;40937;53.594;10.034;2023-05-16T18:12:03;13.48;;;5.38;;
55037;SDS011;40937;53.594;10.034;2023-05-16T18:14:34;20.05;;;5.65;;
55037;SDS011;40937;53.594;10.034;2023-05-16T18:17:01;17.35;;;6.28;;
55037;SDS011;40937;53.594;10.034;2023-05-16T18:19:29;17.45;;;5.70;;
55037;SDS011;40937;53.594;10.034;2023-05-16T18:21:56;16.33;;;5.45;;
55037;SDS011;40937;53.594;10.034;2023-05-16T18:24:26;18.35;;;5.47;;
55037;SDS011;40937;53.594;10.034;2023-05-16T18:26:56;16.23;;;5.75;;
55037;SDS011;40937;53.594;10.034;2023-05-16T18:29:26;15.98;;;6.95;;
55037;SDS011;40937;53.594;10.034;2023-05-16T18:31:53;14.10;;;5.63;;
55037;SDS011;40937;53.594;10.034;2023-05-16T18:34:21;15.65;;;5.47;;
55037;SDS011;40937;53.594;10.034;2023-05-16T18:36:48;15.05;;;5.32;;
55037;SDS011;40937;53.594;10.034;2023-05-16T18:39:15;19.25;;;5.88;;
55037;SDS011;40937;53.594;10.034;2023-05-16T18:41:46;18.13;;;5.53;;
55037;SDS011;40937;53.594;10.034;2023-05-16T18:44:14;17.25;;;5.50;;
55037;SDS011;40937;53.594;10.034;2023-05-16T18:46:42;22.52;;;6.65;;
55037;SDS011;40937;53.594;10.034;2023-05-16T18:49:11;24.13;;;5.97;;
55037;SDS011;40937;53.594;10.034;2023-05-16T18:51:38;21.30;;;5.82;;
55037;SDS011;40937;53.594;10.034;2023-05-16T18:54:06;14.23;;;5.32;;
55037;SDS011;40937;53.594;10.034;2023-05-16T18:56:33;16.85;;;6.18;;
55037;SDS011;40937;53.594;10.034;2023-05-16T18:59:02;20.27;;;6.63;;
55037;SDS011;40937;53.594;10.034;2023-05-16T19:01:29;22.27;;;7.30;;
55037;SDS011;40937;53.594;10.034;2023-05-16T19:03:56;26.50;;;6.95;;
55037;SDS011;40937;53.594;10.034;2023-05-16T19:06:23;24.20;;;7.30;;
55037;SDS011;40937;53.594;10.034;2023-05-16T19:08:51;22.25;;;7.18;;
55037;SDS011;40937;53.594;10.034;2023-05-16T19:11:18;19.45;;;7.72;;
55037;SDS011;40937;53.594;10.034;2023-05-16T19:13:47;21.17;;;7.15;;
55037;SDS011;40937;53.594;10.034;2023-05-16T19:16:15;27.60;;;7.10;;
55037;SDS011;40937;53.594;10.034;2023-05-16T19:18:44;22.95;;;7.15;;
55037;SDS011;40937;53.594;10.034;2023-05-16T19:21:12;22.60;;;7.22;;
55037;SDS011;40937;53.594;10.034;2023-05-16T19:23:40;19.55;;;6.53;;
55037;SDS011;40937;53.594;10.034;2023-05-16T19:26:07;22.70;;;7.45;;
55037;SDS011;40937;53.594;10.034;2023-05-16T19:28:34;19.77;;;6.65;;
55037;SDS011;40937;53.594;10.034;2023-05-16T19:31:02;19.88;;;7.07;;
55037;SDS011;40937;53.594;10.034;2023-05-16T19:33:33;25.15;;;7.20;;
55037;SDS011;40937;53.594;10.034;2023-05-16T19:36:02;22.77;;;7.35;;
55037;SDS011;40937;53.594;10.034;2023-05-16T19:38:30;25.70;;;7.20;;
55037;SDS011;40937;53.594;10.034;2023-05-16T19:40:57;22.15;;;6.32;;
55037;SDS011;40937;53.594;10.034;2023-05-16T19:43:25;25.23;;;7.25;;
55037;SDS011;40937;53.594;10.034;2023-05-16T19:45:52;22.88;;;6.70;;
55037;SDS011;40937;53.594;10.034;2023-05-16T19:48:19;27.90;;;7.15;;
55037;SDS011;40937;53.594;10.034;2023-05-16T19:50:48;33.80;;;8.48;;
55037;SDS011;40937;53.594;10.034;2023-05-16T19:53:15;22.15;;;8.02;;
55037;SDS011;40937;53.594;10.034;2023-05-16T19:55:42;19.23;;;6.68;;
55037;SDS011;40937;53.594;10.034;2023-05-16T19:58:11;28.63;;;7.93;;
55037;SDS011;40937;53.594;10.034;2023-05-16T20:00:38;20.23;;;6.88;;
55037;SDS011;40937;53.594;10.034;2023-05-16T20:03:05;17.92;;;6.72;;
55037;SDS011;40937;53.594;10.034;2023-05-16T20:05:36;14.82;;;5.97;;
55037;SDS011;40937;53.594;10.034;2023-05-16T20:08:04;15.82;;;5.97;;
55037;SDS011;40937;53.594;10.034;2023-05-16T20:10:31;18.20;;;6.57;;
55037;SDS011;40937;53.594;10.034;2023-05-16T20:12:59;15.00;;;6.07;;